sensor_id;sensor_type;location;lat;lon;timestamp;pressure;altitude;pressure_sealevel;temperature;humidity
60355;BME280;46198;51.464;-0.066;2023-03-01T00:01:20;103188.91;;;5.12;100.00
60355;BME280;46198;51.464;-0.066;2023-03-01T00:03:48;103196.97;;;5.12;100.00
60355;BME280;46198;51.464;-0.066;2023-03-01T00:06:17;103189.03;;;5.10;100.00
60355;BME280;46198;51.464;-0.066;2023-03-01T00:08:45;103194.28;;;5.12;100.00
60355;BME280;46198;51.464;-0.066;2023-03-01T00:11:15;103198.34;;;5.06;100.00
60355;BME280;46198;51.464;-0.066;2023-03-01T00:13:47;103199.91;;;5.09;100.00
60355;BME280;46198;51.464;-0.066;2023-03-01T00:16:18;103198.69;;;5.02;100.00
60355;BME280;46198;51.464;-0.066;2023-03-01T00:18:46;103217.31;;;4.94;100.00
60355;BME280;46198;51.464;-0.066;2023-03-01T00:21:14;103213.41;;;4.98;100.00
60355;BME280;46198;51.464;-0.066;2023-03-01T00:23:42;103212.56;;;4.97;100.00
60355;BME280;46198;51.464;-0.066;2023-03-01T00:26:13;103203.50;;;4.98;100.00
60355;BME280;46198;51.464;-0.066;2023-03-01T00:28:41;103223.69;;;4.93;100.00
60355;BME280;46198;51.464;-0.066;2023-03-01T00:31:12;103218.41;;;4.91;100.00
60355;BME280;46198;51.464;-0.066;2023-03-01T00:33:41;103216.59;;;4.92;100.00
60355;BME280;46198;51.464;-0.066;2023-03-01T00:36:10;103218.31;;;4.93;100.00
60355;BME280;46198;51.464;-0.066;2023-03-01T00:38:40;103215.88;;;4.89;100.00
60355;BME280;46198;51.464;-0.066;2023-03-01T00:41:10;103203.16;;;4.92;100.00
60355;BME280;46198;51.464;-0.066;2023-03-01T00:43:39;103209.50;;;4.91;100.00
60355;BME280;46198;51.464;-0.066;2023-03-01T00:46:09;103203.38;;;4.88;100.00
60355;BME280;46198;51.464;-0.066;2023-03-01T00:48:39;103209.50;;;4.91;100.00
60355;BME280;46198;51.464;-0.066;2023-03-01T00:51:08;103207.31;;;4.84;100.00
60355;BME280;46198;51.464;-0.066;2023-03-01T00:53:37;103202.25;;;4.91;100.00
60355;BME280;46198;51.464;-0.066;2023-03-01T00:56:30;103197.97;;;4.88;100.00
60355;BME280;46198;51.464;-0.066;2023-03-01T00:58:59;103192.75;;;4.87;100.00
60355;BME280;46198;51.464;-0.066;2023-03-01T01:01:29;103198.59;;;4.92;100.00
60355;BME280;46198;51.464;-0.066;2023-03-01T01:04:02;103193.09;;;4.94;100.00
60355;BME280;46198;51.464;-0.066;2023-03-01T01:06:33;103193.09;;;4.94;100.00
60355;BME280;46198;51.464;-0.066;2023-03-01T01:09:03;103189.53;;;4.93;100.00
60355;BME280;46198;51.464;-0.066;2023-03-01T01:11:31;103189.69;;;4.92;100.00
60355;BME280;46198;51.464;-0.066;2023-03-01T01:13:59;103192.84;;;4.97;100.00
60355;BME280;46198;51.464;-0.066;2023-03-01T01:16:29;103194.81;;;4.95;100.00
60355;BME280;46198;51.464;-0.066;2023-03-01T01:18:59;103192.13;;;4.95;100.00
60355;BME280;46198;51.464;-0.066;2023-03-01T01:21:27;103191.97;;;4.96;100.00
60355;BME280;46198;51.464;-0.066;2023-03-01T01:23:56;103188.44;;;4.96;100.00
60355;BME280;46198;51.464;-0.066;2023-03-01T01:26:26;103187.94;;;4.91;100.00
60355;BME280;46198;51.464;-0.066;2023-03-01T01:28:55;103180.25;;;4.97;100.00
60355;BME280;46198;51.464;-0.066;2023-03-01T01:31:24;103175.72;;;4.98;100.00
60355;BME280;46198;51.464;-0.066;2023-03-01T01:33:53;103177.66;;;4.96;100.00
60355;BME280;46198;51.464;-0.066;2023-03-01T01:36:23;103187.00;;;4.92;100.00
60355;BME280;46198;51.464;-0.066;2023-03-01T01:38:51;103179.63;;;4.94;100.00
60355;BME280;46198;51.464;-0.066;2023-03-01T01:41:20;103186.22;;;5.01;100.00
60355;BME280;46198;51.464;-0.066;2023-03-01T01:43:49;103184.28;;;5.03;100.00
60355;BME280;46198;51.464;-0.066;2023-03-01T01:46:37;103180.34;;;5.07;100.00
60355;BME280;46198;51.464;-0.066;2023-03-01T01:49:10;103181.19;;;5.07;100.00
60355;BME280;46198;51.464;-0.066;2023-03-01T01:51:45;103177.53;;;5.08;100.00
60355;BME280;46198;51.464;-0.066;2023-03-01T01:54:23;103171.41;;;5.06;100.00
60355;BME280;46198;51.464;-0.066;2023-03-01T01:56:55;103163.91;;;5.10;100.00
60355;BME280;46198;51.464;-0.066;2023-03-01T01:59:28;103159.31;;;5.01;100.00
60355;BME280;46198;51.464;-0.066;2023-03-01T02:01:59;103159.78;;;5.06;100.00
60355;BME280;46198;51.464;-0.066;2023-03-01T02:04:28;103156.25;;;5.05;100.00
60355;BME280;46198;51.464;-0.066;2023-03-01T02:07:01;103156.59;;;5.01;100.00
60355;BME280;46198;51.464;-0.066;2023-03-01T02:09:31;103150.22;;;5.02;100.00
60355;BME280;46198;51.464;-0.066;2023-03-01T02:12:01;103148.28;;;5.04;100.00
60355;BME280;46198;51.464;-0.066;2023-03-01T02:14:29;103139.34;;;5.03;100.00
60355;BME280;46198;51.464;-0.066;2023-03-01T02:16:57;103137.25;;;5.07;100.00
60355;BME280;46198;51.464;-0.066;2023-03-01T02:19:38;103144.13;;;5.00;100.00
60355;BME280;46198;51.464;-0.066;2023-03-01T02:22:18;103125.88;;;5.03;100.00
60355;BME280;46198;51.464;-0.066;2023-03-01T02:24:57;103135.56;;;5.06;100.00
60355;BME280;46198;51.464;-0.066;2023-03-01T02:27:34;103132.38;;;5.01;100.00
60355;BME280;46198;51.464;-0.066;2023-03-01T02:30:07;103128.69;;;5.02;100.00
60355;BME280;46198;51.464;-0.066;2023-03-01T02:33:03;103121.34;;;5.04;100.00
60355;BME280;46198;51.464;-0.066;2023-03-01T02:35:33;103117.69;;;5.05;100.00
60355;BME280;46198;51.464;-0.066;2023-03-01T02:38:06;103113.28;;;5.04;100.00
60355;BME280;46198;51.464;-0.066;2023-03-01T02:40:35;103112.53;;;5.02;100.00
60355;BME280;46198;51.464;-0.066;2023-03-01T02:43:09;103104.34;;;5.03;100.00
60355;BME280;46198;51.464;-0.066;2023-03-01T02:45:48;103109.13;;;5.00;100.00
60355;BME280;46198;51.464;-0.066;2023-03-01T02:48:16;103109.88;;;4.91;100.00
60355;BME280;46198;51.464;-0.066;2023-03-01T02:50:55;103110.84;;;5.01;100.00
60355;BME280;46198;51.464;-0.066;2023-03-01T02:53:32;103110.84;;;5.01;100.00
60355;BME280;46198;51.464;-0.066;2023-03-01T02:56:04;103105.72;;;4.98;100.00
60355;BME280;46198;51.464;-0.066;2023-03-01T02:58:32;103104.00;;;4.97;100.00
60355;BME280;46198;51.464;-0.066;2023-03-01T03:01:08;103100.31;;;4.98;100.00
60355;BME280;46198;51.464;-0.066;2023-03-01T03:03:36;103098.63;;;4.97;100.00
60355;BME280;46198;51.464;-0.066;2023-03-01T03:06:05;103095.19;;;4.95;100.00
60355;BME280;46198;51.464;-0.066;2023-03-01T03:08:33;103093.25;;;4.97;100.00
60355;BME280;46198;51.464;-0.066;2023-03-01T03:11:01;103093.25;;;4.97;100.00
60355;BME280;46198;51.464;-0.066;2023-03-01T03:13:29;103087.84;;;4.97;100.00
60355;BME280;46198;51.464;-0.066;2023-03-01T03:15:57;103093.25;;;4.97;100.00
60355;BME280;46198;51.464;-0.066;2023-03-01T03:18:26;103086.88;;;4.98;100.00
60355;BME280;46198;51.464;-0.066;2023-03-01T03:20:54;103084.03;;;4.99;100.00
60355;BME280;46198;51.464;-0.066;2023-03-01T03:23:22;103090.41;;;4.98;100.00
60355;BME280;46198;51.464;-0.066;2023-03-01T03:25:50;103091.78;;;4.93;100.00
60355;BME280;46198;51.464;-0.066;2023-03-01T03:28:18;103076.94;;;4.98;100.00
60355;BME280;46198;51.464;-0.066;2023-03-01T03:30:46;103082.47;;;4.97;100.00
60355;BME280;46198;51.464;-0.066;2023-03-01T03:33:14;103081.59;;;4.96;100.00
60355;BME280;46198;51.464;-0.066;2023-03-01T03:35:45;103077.19;;;4.95;100.00
60355;BME280;46198;51.464;-0.066;2023-03-01T03:38:15;103069.00;;;4.97;100.00
60355;BME280;46198;51.464;-0.066;2023-03-01T03:40:45;103071.94;;;4.94;100.00
60355;BME280;46198;51.464;-0.066;2023-03-01T03:43:16;103063.91;;;4.82;100.00
60355;BME280;46198;51.464;-0.066;2023-03-01T03:45:44;103067.53;;;4.93;100.00
60355;BME280;46198;51.464;-0.066;2023-03-01T03:48:13;103066.53;;;4.94;100.00
60355;BME280;46198;51.464;-0.066;2023-03-01T03:50:41;103063.75;;;4.95;100.00
60355;BME280;46198;51.464;-0.066;2023-03-01T03:53:11;103070.50;;;4.89;100.00
60355;BME280;46198;51.464;-0.066;2023-03-01T03:55:39;103064.59;;;4.96;100.00
60355;BME280;46198;51.464;-0.066;2023-03-01T03:58:09;103064.84;;;4.93;100.00
60355;BME280;46198;51.464;-0.066;2023-03-01T04:00:39;103061.41;;;4.91;100.00
60355;BME280;46198;51.464;-0.066;2023-03-01T04:03:08;103063.38;;;4.88;100.00
60355;BME280;46198;51.464;-0.066;2023-03-01T04:05:37;103063.16;;;4.92;100.00
60355;BME280;46198;51.464;-0.066;2023-03-01T04:08:06;103057.78;;;4.92;100.00
60355;BME280;46198;51.464;-0.066;2023-03-01T04:10:39;103050.06;;;4.87;100.00
60355;BME280;46198;51.464;-0.066;2023-03-01T04:13:10;103050.44;;;4.82;100.00
60355;BME280;46198;51.464;-0.066;2023-03-01T04:15:38;103044.59;;;4.77;100.00
60355;BME280;46198;51.464;-0.066;2023-03-01T04:18:08;103037.72;;;4.84;100.00
60355;BME280;46198;51.464;-0.066;2023-03-01T04:20:36;103037.50;;;4.76;100.00
60355;BME280;46198;51.464;-0.066;2023-03-01T04:23:07;103030.63;;;4.83;100.00
60355;BME280;46198;51.464;-0.066;2023-03-01T04:25:42;103025.75;;;4.77;100.00
60355;BME280;46198;51.464;-0.066;2023-03-01T04:28:12;103027.44;;;4.89;100.00
60355;BME280;46198;51.464;-0.066;2023-03-01T04:30:40;103029.75;;;4.83;100.00
60355;BME280;46198;51.464;-0.066;2023-03-01T04:33:10;103027.84;;;4.74;100.00
60355;BME280;46198;51.464;-0.066;2023-03-01T04:35:38;103030.41;;;4.75;100.00
60355;BME280;46198;51.464;-0.066;2023-03-01T04:38:07;103027.00;;;4.73;100.00
60355;BME280;46198;51.464;-0.066;2023-03-01T04:40:36;103020.09;;;4.80;100.00
60355;BME280;46198;51.464;-0.066;2023-03-01T04:43:05;103024.91;;;4.77;100.00
60355;BME280;46198;51.464;-0.066;2023-03-01T04:45:33;103022.19;;;4.77;100.00
60355;BME280;46198;51.464;-0.066;2023-03-01T04:48:02;103024.03;;;4.76;100.00
60355;BME280;46198;51.464;-0.066;2023-03-01T04:50:32;103019.41;;;4.78;100.00
60355;BME280;46198;51.464;-0.066;2023-03-01T04:53:00;103017.66;;;4.77;100.00
60355;BME280;46198;51.464;-0.066;2023-03-01T04:55:28;103019.78;;;4.74;100.00
60355;BME280;46198;51.464;-0.066;2023-03-01T04:57:56;103018.66;;;4.76;100.00
60355;BME280;46198;51.464;-0.066;2023-03-01T05:00:26;103020.34;;;4.77;100.00
60355;BME280;46198;51.464;-0.066;2023-03-01T05:02:56;103012.28;;;4.77;100.00
60355;BME280;46198;51.464;-0.066;2023-03-01T05:05:27;103014.00;;;4.78;100.00
60355;BME280;46198;51.464;-0.066;2023-03-01T05:07:56;103011.81;;;4.72;100.00
60355;BME280;46198;51.464;-0.066;2023-03-01T05:10:25;103019.19;;;4.70;100.00
60355;BME280;46198;51.464;-0.066;2023-03-01T05:12:53;103017.34;;;4.71;100.00
60355;BME280;46198;51.464;-0.066;2023-03-01T05:15:21;103006.31;;;4.74;100.00
60355;BME280;46198;51.464;-0.066;2023-03-01T05:17:54;103014.50;;;4.72;100.00
60355;BME280;46198;51.464;-0.066;2023-03-01T05:20:25;103012.94;;;4.70;100.00
60355;BME280;46198;51.464;-0.066;2023-03-01T05:22:55;103011.81;;;4.72;100.00
60355;BME280;46198;51.464;-0.066;2023-03-01T05:25:23;103010.13;;;4.71;100.00
60355;BME280;46198;51.464;-0.066;2023-03-01T05:27:51;103003.53;;;4.64;100.00
60355;BME280;46198;51.464;-0.066;2023-03-01T05:30:20;103006.69;;;4.69;100.00
60355;BME280;46198;51.464;-0.066;2023-03-01T05:32:49;103002.31;;;4.68;100.00
60355;BME280;46198;51.464;-0.066;2023-03-01T05:35:23;103000.59;;;4.67;100.00
60355;BME280;46198;51.464;-0.066;2023-03-01T05:42:01;103007.50;;;4.49;100.00
60355;BME280;46198;51.464;-0.066;2023-03-01T05:44:29;102999.03;;;4.53;100.00
60355;BME280;46198;51.464;-0.066;2023-03-01T05:46:57;103000.88;;;4.53;100.00
60355;BME280;46198;51.464;-0.066;2023-03-01T05:49:25;103003.56;;;4.53;100.00
60355;BME280;46198;51.464;-0.066;2023-03-01T05:51:54;102998.19;;;4.53;100.00
60355;BME280;46198;51.464;-0.066;2023-03-01T05:54:48;102998.19;;;4.53;100.00
60355;BME280;46198;51.464;-0.066;2023-03-01T05:57:16;102995.50;;;4.53;100.00
60355;BME280;46198;51.464;-0.066;2023-03-01T05:59:45;103001.59;;;4.55;100.00
60355;BME280;46198;51.464;-0.066;2023-03-01T06:02:13;102989.16;;;4.54;100.00
60355;BME280;46198;51.464;-0.066;2023-03-01T06:04:41;102994.53;;;4.54;100.00
60355;BME280;46198;51.464;-0.066;2023-03-01T06:07:10;102987.94;;;4.47;100.00
60355;BME280;46198;51.464;-0.066;2023-03-01T06:09:40;102985.97;;;4.49;100.00
60355;BME280;46198;51.464;-0.066;2023-03-01T06:12:08;102987.69;;;4.50;100.00
60355;BME280;46198;51.464;-0.066;2023-03-01T06:14:38;102995.00;;;4.48;100.00
60355;BME280;46198;51.464;-0.066;2023-03-01T06:17:06;102999.75;;;4.55;100.00
60355;BME280;46198;51.464;-0.066;2023-03-01T06:19:34;102995.91;;;4.48;100.00
60355;BME280;46198;51.464;-0.066;2023-03-01T06:22:02;103004.06;;;4.47;100.00
60355;BME280;46198;51.464;-0.066;2023-03-01T06:24:31;102999.22;;;4.40;100.00
60355;BME280;46198;51.464;-0.066;2023-03-01T06:26:59;103004.34;;;4.43;100.00
60355;BME280;46198;51.464;-0.066;2023-03-01T06:29:27;102995.00;;;4.48;100.00
60355;BME280;46198;51.464;-0.066;2023-03-01T06:31:56;103000.06;;;4.41;100.00
60355;BME280;46198;51.464;-0.066;2023-03-01T06:34:24;102999.69;;;4.46;100.00
60355;BME280;46198;51.464;-0.066;2023-03-01T06:36:52;103012.88;;;4.49;100.00
60355;BME280;46198;51.464;-0.066;2023-03-01T06:39:19;103016.06;;;4.54;100.00
60355;BME280;46198;51.464;-0.066;2023-03-01T06:41:49;103016.66;;;4.57;100.00
60355;BME280;46198;51.464;-0.066;2023-03-01T06:44:19;103011.63;;;4.53;100.00
60355;BME280;46198;51.464;-0.066;2023-03-01T06:46:47;103014.31;;;4.53;100.00
60355;BME280;46198;51.464;-0.066;2023-03-01T06:49:15;103014.69;;;4.59;100.00
60355;BME280;46198;51.464;-0.066;2023-03-01T06:51:44;103009.16;;;4.61;100.00
60355;BME280;46198;51.464;-0.066;2023-03-01T06:54:13;103008.47;;;4.59;100.00
60355;BME280;46198;51.464;-0.066;2023-03-01T06:56:41;103010.41;;;4.57;100.00
60355;BME280;46198;51.464;-0.066;2023-03-01T06:59:10;103012.72;;;4.61;100.00
60355;BME280;46198;51.464;-0.066;2023-03-01T07:01:38;103010.75;;;4.63;100.00
60355;BME280;46198;51.464;-0.066;2023-03-01T07:04:06;103011.84;;;4.61;100.00
60355;BME280;46198;51.464;-0.066;2023-03-01T07:06:34;103006.22;;;4.64;100.00
60355;BME280;46198;51.464;-0.066;2023-03-01T07:09:02;103012.22;;;4.68;100.00
60355;BME280;46198;51.464;-0.066;2023-03-01T07:11:30;103021.03;;;4.70;100.00
60355;BME280;46198;51.464;-0.066;2023-03-01T07:13:58;103019.03;;;4.72;100.00
60355;BME280;46198;51.464;-0.066;2023-03-01T07:16:28;103018.44;;;4.68;100.00
60355;BME280;46198;51.464;-0.066;2023-03-01T07:18:56;103015.63;;;4.70;100.00
60355;BME280;46198;51.464;-0.066;2023-03-01T07:21:25;103018.91;;;4.73;100.00
60355;BME280;46198;51.464;-0.066;2023-03-01T07:23:53;103008.91;;;4.75;100.00
60355;BME280;46198;51.464;-0.066;2023-03-01T07:26:21;103018.66;;;4.76;100.00
60355;BME280;46198;51.464;-0.066;2023-03-01T07:28:51;103014.00;;;4.78;100.00
60355;BME280;46198;51.464;-0.066;2023-03-01T07:31:19;103014.28;;;4.75;100.00
60355;BME280;46198;51.464;-0.066;2023-03-01T07:33:49;103014.97;;;4.77;100.00
60355;BME280;46198;51.464;-0.066;2023-03-01T07:36:17;103018.13;;;4.82;100.00
60355;BME280;46198;51.464;-0.066;2023-03-01T07:38:45;103011.78;;;4.83;100.00
60355;BME280;46198;51.464;-0.066;2023-03-01T07:41:13;103013.50;;;4.84;100.00
60355;BME280;46198;51.464;-0.066;2023-03-01T07:43:41;103009.53;;;4.88;100.00
60355;BME280;46198;51.464;-0.066;2023-03-01T07:46:09;103014.34;;;4.85;100.00
60355;BME280;46198;51.464;-0.066;2023-03-01T07:48:37;103004.03;;;4.90;100.00
60355;BME280;46198;51.464;-0.066;2023-03-01T07:51:07;103003.19;;;4.89;100.00
60355;BME280;46198;51.464;-0.066;2023-03-01T07:53:35;102998.78;;;4.88;100.00
60355;BME280;46198;51.464;-0.066;2023-03-01T07:56:04;103003.94;;;4.92;100.00
60355;BME280;46198;51.464;-0.066;2023-03-01T07:58:34;103011.00;;;4.93;100.00
60355;BME280;46198;51.464;-0.066;2023-03-01T08:01:03;103014.81;;;4.90;100.00
60355;BME280;46198;51.464;-0.066;2023-03-01T08:07:38;103009.31;;;4.92;100.00
60355;BME280;46198;51.464;-0.066;2023-03-01T08:10:06;103002.94;;;4.93;100.00
60355;BME280;46198;51.464;-0.066;2023-03-01T08:12:34;103009.06;;;4.95;100.00
60355;BME280;46198;51.464;-0.066;2023-03-01T08:15:02;103009.06;;;4.95;100.00
60355;BME280;46198;51.464;-0.066;2023-03-01T08:17:30;103005.94;;;4.99;100.00
60355;BME280;46198;51.464;-0.066;2023-03-01T08:19:58;103010.22;;;5.02;100.00
60355;BME280;46198;51.464;-0.066;2023-03-01T08:22:27;103000.44;;;5.01;100.00
60355;BME280;46198;51.464;-0.066;2023-03-01T08:24:56;103004.72;;;5.03;100.00
60355;BME280;46198;51.464;-0.066;2023-03-01T08:27:24;102998.34;;;5.04;100.00
60355;BME280;46198;51.464;-0.066;2023-03-01T08:29:52;102997.97;;;5.09;100.00
60355;BME280;46198;51.464;-0.066;2023-03-01T08:32:20;102993.56;;;5.08;100.00
60355;BME280;46198;51.464;-0.066;2023-03-01T08:34:48;102987.91;;;5.11;100.00
60355;BME280;46198;51.464;-0.066;2023-03-01T08:37:16;102998.41;;;5.14;100.00
60355;BME280;46198;51.464;-0.066;2023-03-01T08:39:44;102994.63;;;5.17;100.00
60355;BME280;46198;51.464;-0.066;2023-03-01T08:42:14;102987.13;;;5.20;100.00
60355;BME280;46198;51.464;-0.066;2023-03-01T08:44:42;102993.81;;;5.26;100.00
60355;BME280;46198;51.464;-0.066;2023-03-01T08:47:12;102986.34;;;5.29;100.00
60355;BME280;46198;51.464;-0.066;2023-03-01T08:49:40;102990.47;;;5.33;100.00
60355;BME280;46198;51.464;-0.066;2023-03-01T08:52:08;102977.19;;;5.42;100.00
60355;BME280;46198;51.464;-0.066;2023-03-01T08:54:36;102981.91;;;5.49;100.00
60355;BME280;46198;51.464;-0.066;2023-03-01T08:57:04;102991.41;;;5.53;100.00
60355;BME280;46198;51.464;-0.066;2023-03-01T08:59:33;102986.38;;;5.60;100.00
60355;BME280;46198;51.464;-0.066;2023-03-01T09:02:04;102987.38;;;5.59;100.00
60355;BME280;46198;51.464;-0.066;2023-03-01T09:04:32;102984.84;;;5.67;100.00
60355;BME280;46198;51.464;-0.066;2023-03-01T09:07:00;102974.06;;;5.67;100.00
60355;BME280;46198;51.464;-0.066;2023-03-01T09:09:28;102973.78;;;5.70;100.00
60355;BME280;46198;51.464;-0.066;2023-03-01T09:11:56;102982.75;;;5.81;100.00
60355;BME280;46198;51.464;-0.066;2023-03-01T09:14:24;102979.25;;;5.90;100.00
60355;BME280;46198;51.464;-0.066;2023-03-01T09:16:53;102969.06;;;5.93;100.00
60355;BME280;46198;51.464;-0.066;2023-03-01T09:19:21;102975.03;;;5.97;100.00
60355;BME280;46198;51.464;-0.066;2023-03-01T09:21:52;102967.09;;;5.95;100.00
60355;BME280;46198;51.464;-0.066;2023-03-01T09:24:23;102969.13;;;6.03;100.00
60355;BME280;46198;51.464;-0.066;2023-03-01T09:26:53;102961.03;;;6.13;100.00
60355;BME280;46198;51.464;-0.066;2023-03-01T09:29:22;102963.91;;;6.21;100.00
60355;BME280;46198;51.464;-0.066;2023-03-01T09:31:51;102954.25;;;6.28;100.00
60355;BME280;46198;51.464;-0.066;2023-03-01T09:34:23;102961.06;;;6.32;100.00
60355;BME280;46198;51.464;-0.066;2023-03-01T09:36:51;102955.25;;;6.37;100.00
60355;BME280;46198;51.464;-0.066;2023-03-01T09:39:19;102954.16;;;6.49;100.00
60355;BME280;46198;51.464;-0.066;2023-03-01T09:41:50;102944.50;;;6.66;100.00
60355;BME280;46198;51.464;-0.066;2023-03-01T09:44:27;102947.47;;;6.73;100.00
60355;BME280;46198;51.464;-0.066;2023-03-01T09:46:58;102950.72;;;6.86;100.00
60355;BME280;46198;51.464;-0.066;2023-03-01T09:49:29;102944.06;;;6.90;100.00
60355;BME280;46198;51.464;-0.066;2023-03-01T09:52:00;102927.97;;;6.98;100.00
60355;BME280;46198;51.464;-0.066;2023-03-01T09:54:31;102932.09;;;7.12;100.00
60355;BME280;46198;51.464;-0.066;2023-03-01T09:57:05;102933.63;;;7.15;100.00
60355;BME280;46198;51.464;-0.066;2023-03-01T09:59:46;102929.19;;;7.33;100.00
60355;BME280;46198;51.464;-0.066;2023-03-01T10:02:25;102925.00;;;7.48;100.00
60355;BME280;46198;51.464;-0.066;2023-03-01T10:05:03;102919.25;;;7.61;100.00
60355;BME280;46198;51.464;-0.066;2023-03-01T10:07:41;102920.41;;;7.59;100.00
60355;BME280;46198;51.464;-0.066;2023-03-01T10:10:26;102912.63;;;7.46;100.00
60355;BME280;46198;51.464;-0.066;2023-03-01T10:12:56;102913.34;;;7.48;100.00
60355;BME280;46198;51.464;-0.066;2023-03-01T10:15:32;102914.56;;;7.26;100.00
60355;BME280;46198;51.464;-0.066;2023-03-01T10:18:04;102920.38;;;7.21;100.00
60355;BME280;46198;51.464;-0.066;2023-03-01T10:20:43;102922.53;;;7.27;100.00
60355;BME280;46198;51.464;-0.066;2023-03-01T10:23:13;102917.13;;;7.27;100.00
60355;BME280;46198;51.464;-0.066;2023-03-01T10:25:51;102919.06;;;7.35;100.00
60355;BME280;46198;51.464;-0.066;2023-03-01T10:28:27;102917.38;;;7.34;100.00
60355;BME280;46198;51.464;-0.066;2023-03-01T10:30:58;102918.53;;;7.22;100.00
60355;BME280;46198;51.464;-0.066;2023-03-01T10:33:30;102920.25;;;7.13;100.00
60355;BME280;46198;51.464;-0.066;2023-03-01T10:36:00;102930.22;;;7.22;100.00
60355;BME280;46198;51.464;-0.066;2023-03-01T10:38:30;102923.94;;;7.22;100.00
60355;BME280;46198;51.464;-0.066;2023-03-01T10:41:00;102910.59;;;7.10;100.00
60355;BME280;46198;51.464;-0.066;2023-03-01T10:43:44;102914.06;;;6.93;100.00
60355;BME280;46198;51.464;-0.066;2023-03-01T10:46:22;102911.47;;;7.01;100.00
60355;BME280;46198;51.464;-0.066;2023-03-01T10:49:12;102913.47;;;7.09;100.00
60355;BME280;46198;51.464;-0.066;2023-03-01T10:51:44;102913.72;;;7.16;100.00
60355;BME280;46198;51.464;-0.066;2023-03-01T10:54:19;102921.09;;;7.14;100.00
60355;BME280;46198;51.464;-0.066;2023-03-01T10:56:49;102912.88;;;7.15;100.00
60355;BME280;46198;51.464;-0.066;2023-03-01T10:59:24;102902.31;;;7.22;100.00
60355;BME280;46198;51.464;-0.066;2023-03-01T11:02:13;102905.47;;;7.17;100.00
60355;BME280;46198;51.464;-0.066;2023-03-01T11:04:59;102882.44;;;7.23;100.00
60355;BME280;46198;51.464;-0.066;2023-03-01T11:07:29;102880.13;;;7.28;100.00
60355;BME280;46198;51.464;-0.066;2023-03-01T11:09:56;102884.28;;;7.22;100.00
60355;BME280;46198;51.464;-0.066;2023-03-01T11:12:25;102876.00;;;7.24;100.00
60355;BME280;46198;51.464;-0.066;2023-03-01T11:14:57;102876.13;;;7.32;100.00
60355;BME280;46198;51.464;-0.066;2023-03-01T11:17:27;102872.56;;;7.31;100.00
60355;BME280;46198;51.464;-0.066;2023-03-01T11:20:15;102875.13;;;7.33;100.00
60355;BME280;46198;51.464;-0.066;2023-03-01T11:22:53;102868.41;;;7.37;100.00
60355;BME280;46198;51.464;-0.066;2023-03-01T11:25:25;102867.91;;;7.24;100.00
60355;BME280;46198;51.464;-0.066;2023-03-01T11:27:54;102864.22;;;7.25;100.00
60355;BME280;46198;51.464;-0.066;2023-03-01T11:30:27;102866.50;;;7.20;100.00
60355;BME280;46198;51.464;-0.066;2023-03-01T11:33:04;102846.03;;;7.17;100.00
60355;BME280;46198;51.464;-0.066;2023-03-01T11:35:37;102846.03;;;7.17;100.00
60355;BME280;46198;51.464;-0.066;2023-03-01T11:38:21;102845.19;;;7.17;100.00
60355;BME280;46198;51.464;-0.066;2023-03-01T11:40:54;102843.38;;;7.07;100.00
60355;BME280;46198;51.464;-0.066;2023-03-01T11:43:34;102841.19;;;7.21;100.00
60355;BME280;46198;51.464;-0.066;2023-03-01T11:46:36;102830.25;;;7.22;100.00
60355;BME280;46198;51.464;-0.066;2023-03-01T11:52:10;102838.88;;;7.26;100.00
60355;BME280;46198;51.464;-0.066;2023-03-01T11:54:56;102825.47;;;7.34;100.00
60355;BME280;46198;51.464;-0.066;2023-03-01T11:57:39;102821.31;;;7.40;100.00
60355;BME280;46198;51.464;-0.066;2023-03-01T12:00:34;102820.63;;;7.38;100.00
60355;BME280;46198;51.464;-0.066;2023-03-01T12:03:28;102822.75;;;7.44;100.00
60355;BME280;46198;51.464;-0.066;2023-03-01T12:06:12;102807.38;;;7.44;100.00
60355;BME280;46198;51.464;-0.066;2023-03-01T12:09:01;102818.22;;;7.62;100.00
60355;BME280;46198;51.464;-0.066;2023-03-01T12:11:41;102814.56;;;7.53;100.00
60355;BME280;46198;51.464;-0.066;2023-03-01T12:14:36;102795.25;;;7.48;100.00
60355;BME280;46198;51.464;-0.066;2023-03-01T12:17:24;102801.66;;;7.47;100.00
60355;BME280;46198;51.464;-0.066;2023-03-01T12:20:05;102790.44;;;7.42;100.00
60355;BME280;46198;51.464;-0.066;2023-03-01T12:22:44;102791.38;;;7.33;100.00
60355;BME280;46198;51.464;-0.066;2023-03-01T12:25:21;102782.66;;;7.12;100.00
60355;BME280;46198;51.464;-0.066;2023-03-01T12:28:07;102776.97;;;7.05;100.00
60355;BME280;46198;51.464;-0.066;2023-03-01T12:30:53;102779.28;;;7.00;100.00
60355;BME280;46198;51.464;-0.066;2023-03-01T12:33:30;102768.19;;;7.30;100.00
60355;BME280;46198;51.464;-0.066;2023-03-01T12:39:06;102770.03;;;7.30;100.00
60355;BME280;46198;51.464;-0.066;2023-03-01T12:41:52;102764.59;;;7.12;100.00
60355;BME280;46198;51.464;-0.066;2023-03-01T12:44:35;102755.03;;;7.18;100.00
60355;BME280;46198;51.464;-0.066;2023-03-01T12:47:26;102754.41;;;7.24;100.00
60355;BME280;46198;51.464;-0.066;2023-03-01T12:50:01;102743.91;;;7.21;100.00
60355;BME280;46198;51.464;-0.066;2023-03-01T12:52:36;102738.91;;;7.26;100.00
60355;BME280;46198;51.464;-0.066;2023-03-01T12:55:19;102735.91;;;7.29;100.00
60355;BME280;46198;51.464;-0.066;2023-03-01T12:57:56;102729.41;;;7.22;100.00
60355;BME280;46198;51.464;-0.066;2023-03-01T13:00:34;102722.47;;;7.37;100.00
60355;BME280;46198;51.464;-0.066;2023-03-01T13:03:12;102721.19;;;7.41;100.00
60355;BME280;46198;51.464;-0.066;2023-03-01T13:05:55;102709.91;;;7.46;100.00
60355;BME280;46198;51.464;-0.066;2023-03-01T13:08:28;102713.09;;;7.59;100.00
60355;BME280;46198;51.464;-0.066;2023-03-01T13:11:02;102717.09;;;7.73;100.00
60355;BME280;46198;51.464;-0.066;2023-03-01T13:13:31;102704.91;;;7.69;100.00
60355;BME280;46198;51.464;-0.066;2023-03-01T13:16:21;102700.19;;;7.71;100.00
60355;BME280;46198;51.464;-0.066;2023-03-01T13:19:06;102697.50;;;7.71;100.00